sensor_id;sensor_type;location;lat;lon;timestamp;pressure;altitude;pressure_sealevel;temperature;humidity
13836;BME280;6988;52.614;13.500;2023-07-13T00:01:21;53773.75;;;-143.77;64.37
13836;BME280;6988;52.614;13.500;2023-07-13T00:06:14;53794.28;;;-143.77;64.04
13836;BME280;6988;52.614;13.500;2023-07-13T00:11:06;53794.28;;;-143.77;64.27
13836;BME280;6988;52.614;13.500;2023-07-13T00:15:58;53806.56;;;-143.77;64.20
13836;BME280;6988;52.614;13.500;2023-07-13T00:20:53;53773.75;;;-143.77;64.78
13836;BME280;6988;52.614;13.500;2023-07-13T00:25:45;53773.75;;;-143.77;64.31
13836;BME280;6988;52.614;13.500;2023-07-13T00:30:37;53790.16;;;-143.77;63.56
13836;BME280;6988;52.614;13.500;2023-07-13T00:35:31;53806.56;;;-143.77;64.56
13836;BME280;6988;52.614;13.500;2023-07-13T00:40:25;53831.19;;;-143.77;65.08
13836;BME280;6988;52.614;13.500;2023-07-13T00:51:02;53835.31;;;-143.77;65.09
13836;BME280;6988;52.614;13.500;2023-07-13T00:55:56;53841.44;;;-143.77;65.33
13836;BME280;6988;52.614;13.500;2023-07-13T01:00:50;53802.47;;;-143.77;65.82
13836;BME280;6988;52.614;13.500;2023-07-13T01:05:43;53827.09;;;-143.77;66.34
13836;BME280;6988;52.614;13.500;2023-07-13T01:10:35;53849.66;;;-143.77;66.49
13836;BME280;6988;52.614;13.500;2023-07-13T01:15:40;53874.28;;;-143.77;66.32
13836;BME280;6988;52.614;13.500;2023-07-13T01:20:33;53886.59;;;-143.77;66.68
13836;BME280;6988;52.614;13.500;2023-07-13T01:25:28;53880.44;;;-143.77;66.99
13836;BME280;6988;52.614;13.500;2023-07-13T01:30:20;53864.03;;;-143.77;67.16
13836;BME280;6988;52.614;13.500;2023-07-13T01:35:12;53855.81;;;-143.77;67.55
13836;BME280;6988;52.614;13.500;2023-07-13T01:40:06;53886.59;;;-143.77;67.61
13836;BME280;6988;52.614;13.500;2023-07-13T01:45:01;53859.91;;;-143.77;67.93
13836;BME280;6988;52.614;13.500;2023-07-13T01:49:55;53859.91;;;-143.77;68.45
13836;BME280;6988;52.614;13.500;2023-07-13T01:54:46;53880.44;;;-143.77;68.85
13836;BME280;6988;52.614;13.500;2023-07-13T01:59:41;53903.00;;;-143.77;68.83
13836;BME280;6988;52.614;13.500;2023-07-13T02:04:34;53907.09;;;-143.77;68.16
13836;BME280;6988;52.614;13.500;2023-07-13T02:09:26;53907.09;;;-143.77;68.61
13836;BME280;6988;52.614;13.500;2023-07-13T02:14:18;53888.63;;;-143.77;68.78
13836;BME280;6988;52.614;13.500;2023-07-13T02:19:10;53888.63;;;-143.77;68.96
13836;BME280;6988;52.614;13.500;2023-07-13T02:24:04;53909.16;;;-143.77;68.55
13836;BME280;6988;52.614;13.500;2023-07-13T02:28:56;53925.56;;;-143.77;68.89
13836;BME280;6988;52.614;13.500;2023-07-13T02:33:48;53915.31;;;-143.77;69.23
13836;BME280;6988;52.614;13.500;2023-07-13T02:38:40;53935.84;;;-143.77;69.94
13836;BME280;6988;52.614;13.500;2023-07-13T02:43:34;53905.06;;;-143.77;69.93
13836;BME280;6988;52.614;13.500;2023-07-13T02:48:26;53921.47;;;-143.77;70.01
13836;BME280;6988;52.614;13.500;2023-07-13T02:53:17;53915.31;;;-143.77;70.32
13836;BME280;6988;52.614;13.500;2023-07-13T02:58:09;53896.84;;;-143.77;70.22
13836;BME280;6988;52.614;13.500;2023-07-13T03:03:02;53923.53;;;-143.77;70.31
13836;BME280;6988;52.614;13.500;2023-07-13T03:07:55;53919.41;;;-143.77;70.49
13836;BME280;6988;52.614;13.500;2023-07-13T03:12:47;53907.09;;;-143.77;70.57
13836;BME280;6988;52.614;13.500;2023-07-13T03:17:47;53888.63;;;-143.77;70.68
13836;BME280;6988;52.614;13.500;2023-07-13T03:22:41;53913.25;;;-143.77;70.37
13836;BME280;6988;52.614;13.500;2023-07-13T03:27:34;53941.97;;;-143.77;70.38
13836;BME280;6988;52.614;13.500;2023-07-13T03:32:26;53911.22;;;-143.77;70.40
13836;BME280;6988;52.614;13.500;2023-07-13T03:37:18;53919.41;;;-143.77;70.45
13836;BME280;6988;52.614;13.500;2023-07-13T03:42:12;53909.16;;;-143.77;70.33
13836;BME280;6988;52.614;13.500;2023-07-13T03:47:04;53921.47;;;-143.77;70.49
13836;BME280;6988;52.614;13.500;2023-07-13T03:51:59;53933.78;;;-143.77;70.51
13836;BME280;6988;52.614;13.500;2023-07-13T03:56:51;53900.94;;;-143.77;70.64
13836;BME280;6988;52.614;13.500;2023-07-13T04:01:47;53939.94;;;-143.77;70.49
13836;BME280;6988;52.614;13.500;2023-07-13T04:06:39;53903.00;;;-143.77;70.34
13836;BME280;6988;52.614;13.500;2023-07-13T04:11:32;53921.47;;;-143.77;70.16
13836;BME280;6988;52.614;13.500;2023-07-13T04:16:25;53909.16;;;-143.77;70.13
13836;BME280;6988;52.614;13.500;2023-07-13T04:21:19;53915.31;;;-143.77;69.87
13836;BME280;6988;52.614;13.500;2023-07-13T04:26:12;53909.16;;;-143.77;70.03
13836;BME280;6988;52.614;13.500;2023-07-13T04:31:04;53907.09;;;-143.77;69.84
13836;BME280;6988;52.614;13.500;2023-07-13T04:35:57;53880.44;;;-143.77;69.92
13836;BME280;6988;52.614;13.500;2023-07-13T04:40:51;53890.69;;;-143.77;70.38
13836;BME280;6988;52.614;13.500;2023-07-13T04:45:43;53857.88;;;-143.77;70.00
13836;BME280;6988;52.614;13.500;2023-07-13T04:50:36;53876.34;;;-143.77;69.48
13836;BME280;6988;52.614;13.500;2023-07-13T04:55:29;53907.09;;;-143.77;69.67
13836;BME280;6988;52.614;13.500;2023-07-13T05:00:22;53882.50;;;-143.77;68.63
13836;BME280;6988;52.614;13.500;2023-07-13T05:05:14;53827.09;;;-143.77;68.46
13836;BME280;6988;52.614;13.500;2023-07-13T05:10:08;53839.41;;;-143.77;69.04
13836;BME280;6988;52.614;13.500;2023-07-13T05:15:01;53837.34;;;-143.77;68.44
13836;BME280;6988;52.614;13.500;2023-07-13T05:19:54;53839.41;;;-143.77;67.98
13836;BME280;6988;52.614;13.500;2023-07-13T05:24:46;53851.72;;;-143.77;66.70
13836;BME280;6988;52.614;13.500;2023-07-13T05:29:38;53833.25;;;-143.77;66.25
13836;BME280;6988;52.614;13.500;2023-07-13T05:34:30;53810.69;;;-143.77;66.16
13836;BME280;6988;52.614;13.500;2023-07-13T05:39:23;53814.78;;;-143.77;66.18
13836;BME280;6988;52.614;13.500;2023-07-13T05:44:15;53831.19;;;-143.77;66.15
13836;BME280;6988;52.614;13.500;2023-07-13T05:49:07;53790.16;;;-143.77;66.37
13836;BME280;6988;52.614;13.500;2023-07-13T05:54:00;53790.16;;;-143.77;66.35
13836;BME280;6988;52.614;13.500;2023-07-13T05:58:53;53808.63;;;-143.77;66.26
13836;BME280;6988;52.614;13.500;2023-07-13T06:03:45;53790.16;;;-143.77;66.01
13836;BME280;6988;52.614;13.500;2023-07-13T06:08:39;53794.28;;;-143.77;65.16
13836;BME280;6988;52.614;13.500;2023-07-13T06:13:31;53781.97;;;-143.77;65.09
13836;BME280;6988;52.614;13.500;2023-07-13T06:18:25;53749.13;;;-143.77;64.84
13836;BME280;6988;52.614;13.500;2023-07-13T06:23:17;53757.34;;;-143.77;64.16
13836;BME280;6988;52.614;13.500;2023-07-13T06:28:09;53738.88;;;-143.77;63.60
13836;BME280;6988;52.614;13.500;2023-07-13T06:33:00;53691.69;;;-143.77;63.24
13836;BME280;6988;52.614;13.500;2023-07-13T06:37:54;53636.31;;;-143.77;62.81
13836;BME280;6988;52.614;13.500;2023-07-13T06:42:45;53554.25;;;-143.77;60.86
13836;BME280;6988;52.614;13.500;2023-07-13T06:47:38;53574.75;;;-143.77;59.81
13836;BME280;6988;52.614;13.500;2023-07-13T06:52:29;53529.63;;;-143.77;58.76
13836;BME280;6988;52.614;13.500;2023-07-13T06:57:23;53486.53;;;-143.77;57.33
13836;BME280;6988;52.614;13.500;2023-07-13T07:02:15;53478.34;;;-143.77;56.04
13836;BME280;6988;52.614;13.500;2023-07-13T07:07:06;53461.94;;;-143.77;56.35
13836;BME280;6988;52.614;13.500;2023-07-13T07:11:58;53420.91;;;-143.77;54.60
13836;BME280;6988;52.614;13.500;2023-07-13T07:16:51;53412.69;;;-143.77;53.79
13836;BME280;6988;52.614;13.500;2023-07-13T07:21:43;53359.34;;;-143.77;53.15
13836;BME280;6988;52.614;13.500;2023-07-13T07:26:35;53338.84;;;-143.77;48.88
13836;BME280;6988;52.614;13.500;2023-07-13T07:31:27;53330.63;;;-143.77;49.50
13836;BME280;6988;52.614;13.500;2023-07-13T07:36:20;53416.78;;;-143.77;49.86
13836;BME280;6988;52.614;13.500;2023-07-13T07:41:13;53310.13;;;-143.77;45.49
13836;BME280;6988;52.614;13.500;2023-07-13T07:46:05;53416.78;;;-143.77;44.83
13836;BME280;6988;52.614;13.500;2023-07-13T07:50:57;53345.00;;;-143.77;44.23
13836;BME280;6988;52.614;13.500;2023-07-13T07:55:50;53301.91;;;-143.77;43.83
13836;BME280;6988;52.614;13.500;2023-07-13T08:00:42;53379.88;;;-143.77;42.99
13836;BME280;6988;52.614;13.500;2023-07-13T08:05:36;53363.47;;;-143.77;43.16
13836;BME280;6988;52.614;13.500;2023-07-13T08:10:28;53324.50;;;-143.77;42.66
13836;BME280;6988;52.614;13.500;2023-07-13T08:15:22;53172.69;;;-143.77;41.37
13836;BME280;6988;52.614;13.500;2023-07-13T08:20:14;53326.53;;;-143.77;41.75
13836;BME280;6988;52.614;13.500;2023-07-13T08:25:07;53226.03;;;-143.77;41.43
13836;BME280;6988;52.614;13.500;2023-07-13T08:29:59;53088.59;;;-143.77;40.13
13836;BME280;6988;52.614;13.500;2023-07-13T08:34:52;53256.78;;;-143.77;40.27
13836;BME280;6988;52.614;13.500;2023-07-13T08:39:44;53316.28;;;-143.77;40.54
13836;BME280;6988;52.614;13.500;2023-07-13T08:44:47;53338.84;;;-143.77;41.97
13836;BME280;6988;52.614;13.500;2023-07-13T08:49:44;53310.13;;;-143.77;42.46
13836;BME280;6988;52.614;13.500;2023-07-13T08:54:44;53287.56;;;-143.77;42.88
13836;BME280;6988;52.614;13.500;2023-07-13T08:59:38;53265.00;;;-143.77;42.64
13836;BME280;6988;52.614;13.500;2023-07-13T09:04:36;53207.56;;;-143.77;41.97
13836;BME280;6988;52.614;13.500;2023-07-13T09:09:47;53324.50;;;-143.77;41.09
13836;BME280;6988;52.614;13.500;2023-07-13T09:14:47;53314.22;;;-143.77;40.43
13836;BME280;6988;52.614;13.500;2023-07-13T09:19:41;53117.31;;;-143.77;39.81
13836;BME280;6988;52.614;13.500;2023-07-13T09:24:58;53211.66;;;-143.77;39.97
13836;BME280;6988;52.614;13.500;2023-07-13T09:30:02;53102.94;;;-143.77;39.85
13836;BME280;6988;52.614;13.500;2023-07-13T09:35:00;53113.22;;;-143.77;39.92
13836;BME280;6988;52.614;13.500;2023-07-13T09:39:57;53090.66;;;-143.77;38.76
13836;BME280;6988;52.614;13.500;2023-07-13T09:44:56;53074.22;;;-143.77;38.01
13836;BME280;6988;52.614;13.500;2023-07-13T09:49:55;53072.19;;;-143.77;37.71
13836;BME280;6988;52.614;13.500;2023-07-13T09:54:52;53031.16;;;-143.77;38.12
13836;BME280;6988;52.614;13.500;2023-07-13T09:59:53;52940.91;;;-143.77;37.19
13836;BME280;6988;52.614;13.500;2023-07-13T10:04:57;52930.66;;;-143.77;36.25
13836;BME280;6988;52.614;13.500;2023-07-13T10:09:52;52934.75;;;-143.77;35.65
13836;BME280;6988;52.614;13.500;2023-07-13T10:14:45;52945.00;;;-143.77;35.72
13836;BME280;6988;52.614;13.500;2023-07-13T10:19:41;53102.94;;;-143.77;35.90
13836;BME280;6988;52.614;13.500;2023-07-13T10:24:37;53162.44;;;-143.77;36.36
13836;BME280;6988;52.614;13.500;2023-07-13T10:29:34;53215.78;;;-143.77;37.71
13836;BME280;6988;52.614;13.500;2023-07-13T10:34:28;53277.31;;;-143.77;38.07
13836;BME280;6988;52.614;13.500;2023-07-13T10:39:27;53211.66;;;-143.77;39.30
13836;BME280;6988;52.614;13.500;2023-07-13T10:44:24;53205.50;;;-143.77;37.94
13836;BME280;6988;52.614;13.500;2023-07-13T10:49:20;52965.53;;;-143.77;37.80
13836;BME280;6988;52.614;13.500;2023-07-13T10:54:21;53004.50;;;-143.77;37.32
13836;BME280;6988;52.614;13.500;2023-07-13T10:59:24;53185.00;;;-143.77;37.14
13836;BME280;6988;52.614;13.500;2023-07-13T11:04:19;52924.50;;;-143.77;36.27
13836;BME280;6988;52.614;13.500;2023-07-13T11:09:36;52965.53;;;-143.77;36.87
13836;BME280;6988;52.614;13.500;2023-07-13T11:14:36;52885.53;;;-143.77;36.22
13836;BME280;6988;52.614;13.500;2023-07-13T11:19:41;52904.00;;;-143.77;34.27
13836;BME280;6988;52.614;13.500;2023-07-13T11:24:58;53027.06;;;-143.77;34.31
13836;BME280;6988;52.614;13.500;2023-07-13T11:30:07;52916.28;;;-143.77;35.22
13836;BME280;6988;52.614;13.500;2023-07-13T11:34:59;52912.19;;;-143.77;33.41
13836;BME280;6988;52.614;13.500;2023-07-13T11:39:52;52906.03;;;-143.77;32.97
13836;BME280;6988;52.614;13.500;2023-07-13T11:44:48;52914.25;;;-143.77;33.04
13836;BME280;6988;52.614;13.500;2023-07-13T11:49:44;52922.44;;;-143.77;33.42
13836;BME280;6988;52.614;13.500;2023-07-13T11:54:49;52938.84;;;-143.77;33.85
13836;BME280;6988;52.614;13.500;2023-07-13T11:59:46;52904.00;;;-143.77;34.20
13836;BME280;6988;52.614;13.500;2023-07-13T12:04:38;52871.16;;;-143.77;34.33
13836;BME280;6988;52.614;13.500;2023-07-13T12:09:34;53059.88;;;-143.77;33.89
13836;BME280;6988;52.614;13.500;2023-07-13T12:14:27;53059.88;;;-143.77;34.48
13836;BME280;6988;52.614;13.500;2023-07-13T12:19:23;52912.19;;;-143.77;34.20
13836;BME280;6988;52.614;13.500;2023-07-13T12:24:18;52854.75;;;-143.77;34.09
13836;BME280;6988;52.614;13.500;2023-07-13T12:29:17;52940.91;;;-143.77;32.96
13836;BME280;6988;52.614;13.500;2023-07-13T12:34:13;52912.19;;;-143.77;33.13
13836;BME280;6988;52.614;13.500;2023-07-13T12:39:14;52936.81;;;-143.77;33.43
13836;BME280;6988;52.614;13.500;2023-07-13T12:44:14;53074.22;;;-143.77;32.77
13836;BME280;6988;52.614;13.500;2023-07-13T12:49:07;52965.53;;;-143.77;33.66
13836;BME280;6988;52.614;13.500;2023-07-13T12:54:13;52883.47;;;-143.77;33.62
13836;BME280;6988;52.614;13.500;2023-07-13T12:59:19;53098.84;;;-143.77;34.46
13836;BME280;6988;52.614;13.500;2023-07-13T13:04:12;53092.69;;;-143.77;34.61
13836;BME280;6988;52.614;13.500;2023-07-13T13:09:12;53066.03;;;-143.77;35.40
13836;BME280;6988;52.614;13.500;2023-07-13T13:14:05;53014.75;;;-143.77;35.00
13836;BME280;6988;52.614;13.500;2023-07-13T13:19:09;52936.81;;;-143.77;34.03
13836;BME280;6988;52.614;13.500;2023-07-13T13:24:10;52918.34;;;-143.77;34.13
13836;BME280;6988;52.614;13.500;2023-07-13T13:29:11;53010.66;;;-143.77;33.75
13836;BME280;6988;52.614;13.500;2023-07-13T13:34:10;52945.00;;;-143.77;33.57
13836;BME280;6988;52.614;13.500;2023-07-13T13:39:05;52959.38;;;-143.77;33.75
13836;BME280;6988;52.614;13.500;2023-07-13T13:43:57;52971.69;;;-143.77;33.86
13836;BME280;6988;52.614;13.500;2023-07-13T13:48:49;53084.50;;;-143.77;33.15
13836;BME280;6988;52.614;13.500;2023-07-13T13:53:42;52998.34;;;-143.77;34.25
13836;BME280;6988;52.614;13.500;2023-07-13T13:58:34;52996.28;;;-143.77;33.60
13836;BME280;6988;52.614;13.500;2023-07-13T14:03:27;53002.44;;;-143.77;33.20
13836;BME280;6988;52.614;13.500;2023-07-13T14:08:21;53022.94;;;-143.77;33.35
13836;BME280;6988;52.614;13.500;2023-07-13T14:13:20;53008.59;;;-143.77;33.80
13836;BME280;6988;52.614;13.500;2023-07-13T14:18:13;53043.47;;;-143.77;33.43
13836;BME280;6988;52.614;13.500;2023-07-13T14:23:08;53109.09;;;-143.77;33.75
13836;BME280;6988;52.614;13.500;2023-07-13T14:28:03;53115.25;;;-143.77;34.07
13836;BME280;6988;52.614;13.500;2023-07-13T14:33:08;53096.78;;;-143.77;34.34
13836;BME280;6988;52.614;13.500;2023-07-13T14:38:00;53109.09;;;-143.77;33.79
13836;BME280;6988;52.614;13.500;2023-07-13T14:42:52;53088.59;;;-143.77;34.19
13836;BME280;6988;52.614;13.500;2023-07-13T14:47:44;53115.25;;;-143.77;34.71
13836;BME280;6988;52.614;13.500;2023-07-13T14:52:38;53143.97;;;-143.77;34.28
13836;BME280;6988;52.614;13.500;2023-07-13T14:57:30;53115.25;;;-143.77;34.78
13836;BME280;6988;52.614;13.500;2023-07-13T15:02:28;53137.81;;;-143.77;34.01
13836;BME280;6988;52.614;13.500;2023-07-13T15:07:21;53150.13;;;-143.77;34.45
13836;BME280;6988;52.614;13.500;2023-07-13T15:12:15;53137.81;;;-143.77;33.63
13836;BME280;6988;52.614;13.500;2023-07-13T15:17:28;53139.88;;;-143.77;33.98
13836;BME280;6988;52.614;13.500;2023-07-13T15:22:23;53141.91;;;-143.77;33.40
13836;BME280;6988;52.614;13.500;2023-07-13T15:27:16;53146.03;;;-143.77;33.57
13836;BME280;6988;52.614;13.500;2023-07-13T15:32:13;53139.88;;;-143.77;34.23
13836;BME280;6988;52.614;13.500;2023-07-13T15:37:12;53195.25;;;-143.77;33.86
13836;BME280;6988;52.614;13.500;2023-07-13T15:42:08;53166.53;;;-143.77;33.89
13836;BME280;6988;52.614;13.500;2023-07-13T15:47:11;53164.50;;;-143.77;34.74
13836;BME280;6988;52.614;13.500;2023-07-13T15:52:04;53176.78;;;-143.77;34.28
13836;BME280;6988;52.614;13.500;2023-07-13T15:57:01;53219.88;;;-143.77;35.12
13836;BME280;6988;52.614;13.500;2023-07-13T16:01:53;53139.88;;;-143.77;35.25
13836;BME280;6988;52.614;13.500;2023-07-13T16:06:47;53199.34;;;-143.77;34.75
13836;BME280;6988;52.614;13.500;2023-07-13T16:11:40;53226.03;;;-143.77;34.98
13836;BME280;6988;52.614;13.500;2023-07-13T16:16:34;53193.19;;;-143.77;35.53
13836;BME280;6988;52.614;13.500;2023-07-13T16:21:29;53154.22;;;-143.77;35.39
13836;BME280;6988;52.614;13.500;2023-07-13T16:26:30;53203.47;;;-143.77;35.42
13836;BME280;6988;52.614;13.500;2023-07-13T16:31:32;53223.97;;;-143.77;35.46
13836;BME280;6988;52.614;13.500;2023-07-13T16:36:26;53275.25;;;-143.77;35.86
13836;BME280;6988;52.614;13.500;2023-07-13T16:41:18;53256.78;;;-143.77;35.70
13836;BME280;6988;52.614;13.500;2023-07-13T16:46:14;53262.94;;;-143.77;36.20
13836;BME280;6988;52.614;13.500;2023-07-13T16:51:09;53332.69;;;-143.77;36.47
13836;BME280;6988;52.614;13.500;2023-07-13T16:56:03;53330.63;;;-143.77;37.14
13836;BME280;6988;52.614;13.500;2023-07-13T17:00:56;53345.00;;;-143.77;37.25
13836;BME280;6988;52.614;13.500;2023-07-13T17:05:50;53357.31;;;-143.77;37.38
13836;BME280;6988;52.614;13.500;2023-07-13T17:10:42;53396.28;;;-143.77;42.73
13836;BME280;6988;52.614;13.500;2023-07-13T17:15:35;53480.38;;;-143.77;50.53
13836;BME280;6988;52.614;13.500;2023-07-13T17:20:31;53539.88;;;-143.77;55.32
13836;BME280;6988;52.614;13.500;2023-07-13T17:25:28;53603.47;;;-143.77;59.74
13836;BME280;6988;52.614;13.500;2023-07-13T17:30:22;53621.94;;;-143.77;60.59
13836;BME280;6988;52.614;13.500;2023-07-13T17:35:22;53654.75;;;-143.77;62.20
13836;BME280;6988;52.614;13.500;2023-07-13T17:40:15;53665.03;;;-143.77;63.78
13836;BME280;6988;52.614;13.500;2023-07-13T17:45:10;53695.78;;;-143.77;64.18
13836;BME280;6988;52.614;13.500;2023-07-13T17:50:12;53720.41;;;-143.77;66.16
13836;BME280;6988;52.614;13.500;2023-07-13T17:55:13;53706.06;;;-143.77;66.66
13836;BME280;6988;52.614;13.500;2023-07-13T18:00:07;53734.78;;;-143.77;68.23
13836;BME280;6988;52.614;13.500;2023-07-13T18:05:19;53728.63;;;-143.77;68.42
13836;BME280;6988;52.614;13.500;2023-07-13T18:10:14;53732.72;;;-143.77;69.73
13836;BME280;6988;52.614;13.500;2023-07-13T18:15:09;53773.75;;;-143.77;70.33
13836;BME280;6988;52.614;13.500;2023-07-13T18:20:01;53763.50;;;-143.77;70.74
13836;BME280;6988;52.614;13.500;2023-07-13T18:25:12;53738.88;;;-143.77;71.93
13836;BME280;6988;52.614;13.500;2023-07-13T18:30:06;53753.25;;;-143.77;71.88
13836;BME280;6988;52.614;13.500;2023-07-13T18:34:59;53761.44;;;-143.77;71.43
13836;BME280;6988;52.614;13.500;2023-07-13T18:39:52;53757.34;;;-143.77;70.42
13836;BME280;6988;52.614;13.500;2023-07-13T18:44:45;53757.34;;;-143.77;70.77
13836;BME280;6988;52.614;13.500;2023-07-13T18:49:38;53747.09;;;-143.77;70.70
13836;BME280;6988;52.614;13.500;2023-07-13T18:54:29;53745.03;;;-143.77;70.25
13836;BME280;6988;52.614;13.500;2023-07-13T18:59:24;53773.75;;;-143.77;69.84
13836;BME280;6988;52.614;13.500;2023-07-13T19:04:29;53753.25;;;-143.77;69.70
13836;BME280;6988;52.614;13.500;2023-07-13T19:09:22;53786.06;;;-143.77;69.21
13836;BME280;6988;52.614;13.500;2023-07-13T19:14:20;53763.50;;;-143.77;69.19
13836;BME280;6988;52.614;13.500;2023-07-13T19:19:14;53810.69;;;-143.77;68.93
13836;BME280;6988;52.614;13.500;2023-07-13T19:24:15;53800.41;;;-143.77;68.93
13836;BME280;6988;52.614;13.500;2023-07-13T19:29:14;53761.44;;;-143.77;69.47
13836;BME280;6988;52.614;13.500;2023-07-13T19:34:18;53771.69;;;-143.77;69.46
13836;BME280;6988;52.614;13.500;2023-07-13T19:39:24;53759.41;;;-143.77;69.13
13836;BME280;6988;52.614;13.500;2023-07-13T19:44:18;53800.41;;;-143.77;69.58
13836;BME280;6988;52.614;13.500;2023-07-13T19:49:11;53765.53;;;-143.77;69.94
13836;BME280;6988;52.614;13.500;2023-07-13T19:54:13;53781.97;;;-143.77;70.01
13836;BME280;6988;52.614;13.500;2023-07-13T19:59:21;53792.22;;;-143.77;70.45
13836;BME280;6988;52.614;13.500;2023-07-13T20:04:14;53814.78;;;-143.77;70.76
13836;BME280;6988;52.614;13.500;2023-07-13T20:09:16;53800.41;;;-143.77;70.89
13836;BME280;6988;52.614;13.500;2023-07-13T20:14:17;53790.16;;;-143.77;71.06
13836;BME280;6988;52.614;13.500;2023-07-13T20:19:12;53827.09;;;-143.77;71.88
13836;BME280;6988;52.614;13.500;2023-07-13T20:24:15;53835.31;;;-143.77;71.69
13836;BME280;6988;52.614;13.500;2023-07-13T20:29:07;53792.22;;;-143.77;72.17
13836;BME280;6988;52.614;13.500;2023-07-13T20:34:00;53827.09;;;-143.77;73.04
13836;BME280;6988;52.614;13.500;2023-07-13T20:38:52;53851.72;;;-143.77;72.86
13836;BME280;6988;52.614;13.500;2023-07-13T20:43:47;53831.19;;;-143.77;73.01
13836;BME280;6988;52.614;13.500;2023-07-13T20:48:41;53810.69;;;-143.77;72.95
13836;BME280;6988;52.614;13.500;2023-07-13T20:53:38;53806.56;;;-143.77;72.70
13836;BME280;6988;52.614;13.500;2023-07-13T20:58:30;53835.31;;;-143.77;72.83
13836;BME280;6988;52.614;13.500;2023-07-13T21:03:26;53818.88;;;-143.77;72.72
13836;BME280;6988;52.614;13.500;2023-07-13T21:08:22;53859.91;;;-143.77;72.66
13836;BME280;6988;52.614;13.500;2023-07-13T21:13:16;53829.16;;;-143.77;72.28
13836;BME280;6988;52.614;13.500;2023-07-13T21:18:17;53831.19;;;-143.77;72.28
13836;BME280;6988;52.614;13.500;2023-07-13T21:23:26;53847.59;;;-143.77;72.44
13836;BME280;6988;52.614;13.500;2023-07-13T21:28:20;53903.00;;;-143.77;72.64
13836;BME280;6988;52.614;13.500;2023-07-13T21:33:13;53847.59;;;-143.77;72.64
13836;BME280;6988;52.614;13.500;2023-07-13T21:38:18;53835.31;;;-143.77;73.08
13836;BME280;6988;52.614;13.500;2023-07-13T21:43:12;53833.25;;;-143.77;72.78
13836;BME280;6988;52.614;13.500;2023-07-13T22:04:22;53925.56;;;-143.77;72.90
13836;BME280;6988;52.614;13.500;2023-07-13T22:09:18;53917.38;;;-143.77;73.73
13836;BME280;6988;52.614;13.500;2023-07-13T22:14:11;53905.06;;;-143.77;74.00
13836;BME280;6988;52.614;13.500;2023-07-13T22:19:12;53907.09;;;-143.77;74.25
13836;BME280;6988;52.614;13.500;2023-07-13T22:24:14;53900.94;;;-143.77;75.12
13836;BME280;6988;52.614;13.500;2023-07-13T22:29:12;53900.94;;;-143.77;75.53
13836;BME280;6988;52.614;13.500;2023-07-13T22:34:09;53886.59;;;-143.77;75.37
13836;BME280;6988;52.614;13.500;2023-07-13T22:39:03;53880.44;;;-143.77;74.80
13836;BME280;6988;52.614;13.500;2023-07-13T22:43:57;53896.84;;;-143.77;74.51
13836;BME280;6988;52.614;13.500;2023-07-13T22:48:56;53888.63;;;-143.77;74.91
13836;BME280;6988;52.614;13.500;2023-07-13T22:53:48;53882.50;;;-143.77;74.34
13836;BME280;6988;52.614;13.500;2023-07-13T22:58:41;53905.06;;;-143.77;73.89
13836;BME280;6988;52.614;13.500;2023-07-13T23:03:35;53915.31;;;-143.77;73.56
13836;BME280;6988;52.614;13.500;2023-07-13T23:08:29;53884.53;;;-143.77;73.66
13836;BME280;6988;52.614;13.500;2023-07-13T23:13:21;53911.22;;;-143.77;73.96
13836;BME280;6988;52.614;13.500;2023-07-13T23:18:16;53915.31;;;-143.77;73.72
13836;BME280;6988;52.614;13.500;2023-07-13T23:23:13;53884.53;;;-143.77;73.54
13836;BME280;6988;52.614;13.500;2023-07-13T23:28:05;53913.25;;;-143.77;73.58
13836;BME280;6988;52.614;13.500;2023-07-13T23:33:02;53909.16;;;-143.77;73.72
13836;BME280;6988;52.614;13.500;2023-07-13T23:37:54;53884.53;;;-143.77;73.60
13836;BME280;6988;52.614;13.500;2023-07-13T23:42:49;53892.75;;;-143.77;73.33
13836;BME280;6988;52.614;13.500;2023-07-13T23:47:42;53929.69;;;-143.77;73.21
13836;BME280;6988;52.614;13.500;2023-07-13T23:52:35;53909.16;;;-143.77;73.34
13836;BME280;6988;52.614;13.500;2023-07-13T23:57:27;53905.06;;;-143.77;72.96
